This is the latest recevied weather packets stored in our database for station/object EA3DJ-10. If no packets are shown the sender has not sent any weather packets the latest 10 day(s).
| Time | Temp. | Humidity | Pressure | Rain* | Wind** | Luminosity | Snow |
|---|---|---|---|---|---|---|---|
| 1787879931 | 35.56° C | 30% | 1015.5 hPa | - | - | - | - |
| 1787878730 | 34.44° C | 31% | 1015.5 hPa | - | - | - | - |
| 1787877530 | 32.78° C | 33% | 1015.4 hPa | - | - | - | - |
| 1787876330 | 32.22° C | 34% | 1014.5 hPa | - | - | - | - |
| 1787875130 | 31.67° C | 33% | 1014.6 hPa | - | - | - | - |
| 1787873930 | 31.67° C | 33% | 1014 hPa | - | - | - | - |
| 1787872730 | 33.89° C | 28% | 1014.7 hPa | - | - | - | - |
| 1787871530 | 29.44° C | 32% | 1015.2 hPa | - | - | - | - |
| 1787870330 | 31.67° C | 29% | 1015 hPa | - | - | - | - |
| 1787869130 | 32.78° C | 29% | 1014.8 hPa | - | - | - | - |
| 1787867930 | 27.22° C | 40% | 1014.5 hPa | - | - | - | - |
| 1787866729 | 27.22° C | 44% | 1013.8 hPa | - | - | - | - |
| 1787865529 | 28.89° C | 49% | 1014 hPa | - | - | - | - |
| 1787864329 | 28.89° C | 49% | 1014.5 hPa | - | - | - | - |
| 1787863129 | 28.89° C | 49% | 1014 hPa | - | - | - | - |
| 1787861929 | 28.89° C | 50% | 1014 hPa | - | - | - | - |
| 1787860729 | 28.89° C | 50% | 1013.7 hPa | - | - | - | - |
| 1787859529 | 28.89° C | 50% | 1013.7 hPa | - | - | - | - |
| 1787858329 | 28.89° C | 51% | 1012.8 hPa | - | - | - | - |
| 1787857129 | 28.89° C | 51% | 1012.6 hPa | - | - | - | - |
| 1787855928 | 28.89° C | 52% | 1012.5 hPa | - | - | - | - |
| 1787854728 | 28.89° C | 52% | 1011.9 hPa | - | - | - | - |
| 1787853528 | 28.89° C | 51% | 1012.4 hPa | - | - | - | - |
| 1787852328 | 28.89° C | 51% | 1012.2 hPa | - | - | - | - |
| 1787851128 | 28.89° C | 51% | 1012.3 hPa | - | - | - | - |
* Rain since midnight (hover to see other rain measurements)
** Current wind speed in m/s (hover to see current wind gust speed)